Portada
METAR-TAF:

METAR-TAF

Aeropuertos :

Colmenar Viejo, España

latitud: 40-39N, longitud: 003-44W, altitud: -999 m

Observación

El informe se hizo hace 20 minutos, a las 13:00 UTC
Viento 6 kt del norte-noroeste con ráfagas de 16 kt
Temperatura 25°C
Humedad 30%
Presión 1015 hPa
Visibilidad 10 km o más
Escasas nubes a una altura de 6000 ft

METAR: LECV 271300Z 34006G16KT 9999 FEW060 25/06 Q1015

Hora: 15:20 (13:20 UTC)

Pronóstico

El informe se hizo hace 2 horas y 20 minutos, a las 11:00 UTC
Pronóstico válido del 27 a las 12 UTC al 27 a las 21 UTC
Viento 4 kt con dirección variable
Visibilidad 10 km o más
sin nubes por debajo de 1500 m y sin presencia de cumulonimbus.
Evolucionando progresivamente
del 27 a las 13 UTC al 27 a las 15 UTC
Viento 10 kt del norte

TAF: LECV 271100Z 2712/2721 VRB04KT CAVOK BECMG 2713/2715 36010KT

Observaciones y pronósticos meteorológicos de más de 4000 aeropuertos (mensajes METAR y TAF).

Los puntos amarillos y rojos representan las estaciones disponibles.

Ponga el ratón en el punto deseado para ver el nombre de la estación.

Haga clic para ver las observaciones y los pronósticos meteorológicos.

Para cambiar el mapa : haga clic en los botones verdes con una cruz de color negro para hacer un zoom, en el botón verde con un guión para alejar o en las flechas verdes para mapas adyacentes.


METAR-TAF: